Time;durP1;ratioP1;P1;durP2;ratioP2;P2;SDS_P1;SDS_P2;PMS_P1;PMS_P2;Temp;Humidity;BMP_temperature;BMP_pressure;BME280_temperature;BME280_humidity;BME280_pressure;Samples;Min_cycle;Max_cycle;Signal;HPM_P1;HPM_P2
2022/06/19 00:01:29;;;;;;;;;;;;;;;16.73;58.06;101229.75;5047697;28;19966;-60
2022/06/19 00:03:55;;;;;;;;;;;;;;;16.95;56.88;101228.59;5047940;28;20234;-60
2022/06/19 00:06:20;;;;;;;;;;;;;;;16.81;57.20;101238.19;5064703;28;20309;-61
2022/06/19 00:08:48;;;;;;;;;;;;;;;16.91;57.08;101236.75;5066115;28;19916;-60
2022/06/19 00:11:15;;;;;;;;;;;;;;;17.09;56.42;101211.88;5064350;28;19916;-60
2022/06/19 00:13:40;;;;;;;;;;;;;;;17.16;56.20;101205.28;5066360;28;20011;-60
2022/06/19 00:16:06;;;;;;;;;;;;;;;17.08;56.33;101210.16;5064593;28;20377;-62
2022/06/19 00:18:31;;;;;;;;;;;;;;;17.33;56.18;101227.44;5065895;28;20355;-63
2022/06/19 00:20:56;;;;;;;;;;;;;;;17.05;55.60;101262.63;5047437;28;19916;-60
2022/06/19 00:23:21;;;;;;;;;;;;;;;17.28;55.19;101334.22;5064502;28;19927;-61
2022/06/19 00:25:47;;;;;;;;;;;;;;;17.35;55.06;101386.22;5065064;28;20015;-61
2022/06/19 00:28:12;;;;;;;;;;;;;;;17.46;55.18;101396.25;5065084;28;20011;-62
2022/06/19 00:30:37;;;;;;;;;;;;;;;17.52;55.42;101421.72;5064999;28;19931;-59
2022/06/19 00:33:03;;;;;;;;;;;;;;;17.38;55.55;101428.66;5062899;28;20401;-61
2022/06/19 00:35:28;;;;;;;;;;;;;;;17.48;56.13;101426.34;5065964;28;20015;-60
2022/06/19 00:37:53;;;;;;;;;;;;;;;17.39;57.49;101408.19;5063742;28;19920;-61
2022/06/19 00:40:19;;;;;;;;;;;;;;;17.29;58.71;101370.56;5065514;28;20439;-58
2022/06/19 00:42:45;;;;;;;;;;;;;;;17.08;59.95;101336.16;5064647;28;19971;-61
2022/06/19 00:45:26;;;;;;;;;;;;;;;16.92;61.43;101312.97;5064706;28;20379;-60
2022/06/19 00:47:52;;;;;;;;;;;;;;;16.99;61.15;101310.00;5063532;28;19968;-58
2022/06/19 00:50:24;;;;;;;;;;;;;;;17.12;60.92;101337.69;5065765;28;19971;-61
2022/06/19 00:52:50;;;;;;;;;;;;;;;17.03;60.53;101351.47;5064365;28;19916;-63
2022/06/19 00:55:17;;;;;;;;;;;;;;;16.85;60.17;101351.50;5046344;28;19927;-60
2022/06/19 00:57:43;;;;;;;;;;;;;;;16.96;59.71;101342.97;5064578;28;19989;-58
2022/06/19 01:00:12;;;;;;;;;;;;;;;17.01;59.27;101362.19;5063529;28;19925;-60
2022/06/19 01:02:38;;;;;;;;;;;;;;;17.02;58.57;101371.94;5064824;28;20283;-60
2022/06/19 01:05:04;;;;;;;;;;;;;;;16.95;57.86;101372.31;5064857;28;19932;-60
2022/06/19 01:07:29;;;;;;;;;;;;;;;16.92;57.83;101374.19;5057035;28;19920;-60
2022/06/19 01:09:54;;;;;;;;;;;;;;;16.78;56.60;101360.75;5046400;28;19939;-61
2022/06/19 01:12:20;;;;;;;;;;;;;;;16.67;54.31;101367.50;5063672;28;19963;-60
2022/06/19 01:14:45;;;;;;;;;;;;;;;16.52;53.80;101357.63;5050668;23;20339;-60
2022/06/19 01:17:11;;;;;;;;;;;;;;;16.72;53.53;101374.38;5025685;28;20017;-59
2022/06/19 01:19:39;;;;;;;;;;;;;;;16.76;53.10;101378.59;5024675;28;20223;-59
2022/06/19 01:22:10;;;;;;;;;;;;;;;16.82;52.90;101380.94;5022674;28;19964;-59
2022/06/19 01:24:39;;;;;;;;;;;;;;;16.76;54.12;101383.91;5043152;28;19916;-60
2022/06/19 01:27:05;;;;;;;;;;;;;;;16.70;54.38;101374.44;5042624;28;20474;-60
2022/06/19 01:29:31;;;;;;;;;;;;;;;16.64;55.07;101358.78;5027716;28;20015;-60
2022/06/19 01:31:57;;;;;;;;;;;;;;;16.77;54.50;101364.38;5023585;28;19917;-61
2022/06/19 01:34:26;;;;;;;;;;;;;;;16.32;56.60;101367.50;5037127;28;19927;-58
2022/06/19 01:36:56;;;;;;;;;;;;;;;16.38;57.30;101343.22;5044546;28;19924;-59
2022/06/19 01:39:21;;;;;;;;;;;;;;;16.17;58.17;101332.72;5030890;28;20633;-59
2022/06/19 01:41:46;;;;;;;;;;;;;;;16.24;58.65;101321.78;5024143;28;19921;-59
2022/06/19 01:44:12;;;;;;;;;;;;;;;16.13;59.82;101304.59;5023034;28;19967;-59
2022/06/19 01:46:37;;;;;;;;;;;;;;;16.25;59.87;101315.53;5024899;28;19953;-60
2022/06/19 01:49:02;;;;;;;;;;;;;;;15.85;61.45;101316.56;5023457;28;20022;-59
2022/06/19 01:51:28;;;;;;;;;;;;;;;16.20;60.53;101354.81;5025369;28;19971;-60
2022/06/19 01:53:55;;;;;;;;;;;;;;;16.36;60.35;101402.75;5023725;28;19921;-60
2022/06/19 01:56:20;;;;;;;;;;;;;;;16.35;60.74;101440.94;5023277;28;19921;-60
2022/06/19 01:58:49;;;;;;;;;;;;;;;16.53;60.65;101447.16;5026377;28;19921;-60
2022/06/19 02:01:15;;;;;;;;;;;;;;;16.31;61.41;101405.63;5047930;28;20505;-59
2022/06/19 02:03:50;;;;;;;;;;;;;;;16.43;61.08;101358.94;5046950;28;20019;-59
2022/06/19 02:06:16;;;;;;;;;;;;;;;16.52;61.36;101339.00;5049005;28;20362;-58
2022/06/19 02:08:41;;;;;;;;;;;;;;;16.55;61.52;101318.44;5047219;28;19916;-59
2022/06/19 02:11:07;;;;;;;;;;;;;;;16.52;62.02;101317.72;5047400;28;19916;-60
2022/06/19 02:13:34;;;;;;;;;;;;;;;16.58;61.54;101338.69;5046726;28;19917;-60
2022/06/19 02:15:59;;;;;;;;;;;;;;;16.60;61.38;101368.75;5028454;28;19991;-59
2022/06/19 02:18:26;;;;;;;;;;;;;;;16.75;60.41;101382.19;5027822;28;19960;-60
2022/06/19 02:20:52;;;;;;;;;;;;;;;16.55;60.88;101448.78;5028488;28;20430;-60
2022/06/19 02:23:30;;;;;;;;;;;;;;;16.54;60.02;101568.56;5027907;28;19945;-59
2022/06/19 02:25:56;;;;;;;;;;;;;;;16.58;58.79;101626.00;5027430;28;20407;-60
2022/06/19 02:28:21;;;;;;;;;;;;;;;16.64;57.47;101553.88;5028233;28;20011;-58
2022/06/19 02:30:47;;;;;;;;;;;;;;;16.64;56.66;101473.19;5026230;28;19950;-60
2022/06/19 02:33:13;;;;;;;;;;;;;;;16.70;56.50;101416.19;5027967;28;19918;-61
2022/06/19 02:35:38;;;;;;;;;;;;;;;16.51;58.09;101331.97;5042488;28;20375;-59
2022/06/19 02:38:05;;;;;;;;;;;;;;;16.55;58.20;101281.19;5026312;28;19921;-59
2022/06/19 02:40:33;;;;;;;;;;;;;;;16.35;58.46;101274.28;5027595;28;19918;-60
2022/06/19 02:42:59;;;;;;;;;;;;;;;16.55;58.53;101259.03;5026121;28;19922;-61
2022/06/19 02:45:26;;;;;;;;;;;;;;;16.49;58.81;101268.22;5027108;28;19928;-61
2022/06/19 02:47:52;;;;;;;;;;;;;;;16.55;59.21;101265.25;5026450;28;19928;-59
2022/06/19 02:50:19;;;;;;;;;;;;;;;16.74;58.42;101236.81;5032275;28;20358;-61
2022/06/19 02:52:44;;;;;;;;;;;;;;;16.76;58.73;101144.44;5047191;28;19991;-61
2022/06/19 02:55:10;;;;;;;;;;;;;;;16.64;59.03;101063.50;5041780;28;20375;-60
2022/06/19 02:57:35;;;;;;;;;;;;;;;16.67;60.58;101037.59;5027805;28;20651;-60
2022/06/19 03:00:00;;;;;;;;;;;;;;;16.60;63.03;101022.94;5026019;28;19964;-60
2022/06/19 03:02:28;;;;;;;;;;;;;;;16.40;64.44;101006.28;5028010;28;19917;-61
2022/06/19 03:04:54;;;;;;;;;;;;;;;16.17;65.66;101011.06;5027117;28;19921;-61
2022/06/19 03:07:19;;;;;;;;;;;;;;;16.22;64.58;101005.50;5045202;28;20342;-60
2022/06/19 03:09:44;;;;;;;;;;;;;;;16.19;65.09;101002.16;5046855;28;19916;-61
2022/06/19 03:12:10;;;;;;;;;;;;;;;16.02;65.86;101011.91;5046340;28;19932;-60
2022/06/19 03:14:35;;;;;;;;;;;;;;;16.15;64.70;100999.69;5046051;28;19921;-61
2022/06/19 03:17:00;;;;;;;;;;;;;;;16.23;64.65;101040.94;5046977;28;19920;-60
2022/06/19 03:19:26;;;;;;;;;;;;;;;16.03;64.42;101083.59;5046810;28;19985;-60
2022/06/19 03:21:51;;;;;;;;;;;;;;;16.38;62.89;101127.81;5033878;28;20074;-61
2022/06/19 03:24:16;;;;;;;;;;;;;;;16.40;62.37;101154.34;5027356;28;20008;-61
2022/06/19 03:26:41;;;;;;;;;;;;;;;16.56;62.12;101159.72;5024870;28;20063;-60
2022/06/19 03:29:07;;;;;;;;;;;;;;;16.68;61.28;101156.34;5025750;28;19944;-60
2022/06/19 03:31:32;;;;;;;;;;;;;;;16.50;62.63;101166.19;5025451;28;19913;-60
2022/06/19 03:33:57;;;;;;;;;;;;;;;16.54;62.68;101177.53;5027433;28;19917;-61
2022/06/19 03:36:24;;;;;;;;;;;;;;;16.52;63.71;101192.72;5026176;28;19917;-60
2022/06/19 03:38:49;;;;;;;;;;;;;;;16.64;63.31;101189.41;5045652;28;19921;-60
2022/06/19 03:41:14;;;;;;;;;;;;;;;16.68;63.80;101151.03;5046055;28;19916;-59
2022/06/19 03:43:40;;;;;;;;;;;;;;;16.67;63.79;101138.69;5045372;28;20378;-60
2022/06/19 03:46:12;;;;;;;;;;;;;;;16.80;63.55;101116.72;5046078;28;19917;-60
2022/06/19 03:48:37;;;;;;;;;;;;;;;16.78;64.32;101121.25;5032509;28;19925;-60
2022/06/19 03:51:02;;;;;;;;;;;;;;;16.71;64.83;101095.94;5024938;28;20310;-61
2022/06/19 03:53:27;;;;;;;;;;;;;;;16.81;64.89;101049.25;5035916;28;19924;-60
2022/06/19 03:55:53;;;;;;;;;;;;;;;16.71;65.95;101013.47;5046390;28;19915;-61
2022/06/19 03:58:18;;;;;;;;;;;;;;;16.69;67.12;100976.31;5037419;28;19944;-61
2022/06/19 04:00:43;;;;;;;;;;;;;;;16.71;67.91;100965.59;5026027;28;20011;-62
2022/06/19 04:03:08;;;;;;;;;;;;;;;16.34;69.71;100825.81;5025282;28;19956;-61
2022/06/19 04:05:34;;;;;;;;;;;;;;;15.94;71.94;100689.91;5024280;28;19971;-60
2022/06/19 04:07:59;;;;;;;;;;;;;;;15.91;72.38;100705.09;5029435;28;20376;-59
2022/06/19 04:10:25;;;;;;;;;;;;;;;15.76;73.44;100773.25;5025614;28;19905;-60
2022/06/19 04:12:50;;;;;;;;;;;;;;;15.92;72.36;100953.06;5024857;28;20504;-62
2022/06/19 04:15:15;;;;;;;;;;;;;;;15.84;72.78;101139.47;5024146;28;20395;-60
2022/06/19 04:17:41;;;;;;;;;;;;;;;15.92;73.39;101171.81;5025695;28;19917;-59
2022/06/19 04:20:09;;;;;;;;;;;;;;;15.76;73.42;101162.91;5045745;28;19967;-59
2022/06/19 04:22:35;;;;;;;;;;;;;;;15.54;73.24;101166.66;5044326;28;20618;-60
2022/06/19 04:25:00;;;;;;;;;;;;;;;15.71;73.47;101162.28;5026986;28;20015;-59
2022/06/19 04:27:25;;;;;;;;;;;;;;;15.42;74.11;101170.78;5025420;28;19917;-58
2022/06/19 04:29:51;;;;;;;;;;;;;;;15.54;73.67;101190.56;5039816;28;20394;-62
2022/06/19 04:32:16;;;;;;;;;;;;;;;15.57;73.43;101194.84;5045165;28;19917;-61
2022/06/19 04:34:41;;;;;;;;;;;;;;;15.37;73.91;101186.94;5044934;28;19928;-60
2022/06/19 04:37:06;;;;;;;;;;;;;;;15.34;74.77;101186.22;5044853;28;19917;-60
2022/06/19 04:39:32;;;;;;;;;;;;;;;15.46;74.87;101192.72;5032504;28;19921;-61
2022/06/19 04:41:57;;;;;;;;;;;;;;;15.45;74.89;101201.63;5025041;28;19917;-60
2022/06/19 04:44:22;;;;;;;;;;;;;;;15.47;75.15;101236.94;5033068;28;19921;-60
2022/06/19 04:46:47;;;;;;;;;;;;;;;15.39;75.11;101232.84;5045086;28;19916;-60
2022/06/19 04:49:13;;;;;;;;;;;;;;;15.50;75.10;101228.84;5034714;28;19921;-60
2022/06/19 04:51:38;;;;;;;;;;;;;;;15.40;74.96;101210.69;5024470;28;20416;-60
2022/06/19 04:54:04;;;;;;;;;;;;;;;15.37;75.17;101181.63;5039188;28;20019;-60
2022/06/19 04:56:29;;;;;;;;;;;;;;;15.29;75.51;101157.22;5040707;28;19921;-60
2022/06/19 04:58:54;;;;;;;;;;;;;;;15.30;75.21;101172.25;5043577;28;20015;-60
2022/06/19 05:01:24;;;;;;;;;;;;;;;15.21;74.94;101191.25;5039190;28;20204;-59
2022/06/19 05:03:50;;;;;;;;;;;;;;;15.19;74.91;101232.94;5043115;28;19917;-60
2022/06/19 05:06:15;;;;;;;;;;;;;;;15.09;75.72;101262.56;5037700;28;19927;-60
2022/06/19 05:08:41;;;;;;;;;;;;;;;15.11;75.65;101233.31;5030615;28;19925;-60
2022/06/19 05:11:08;;;;;;;;;;;;;;;14.94;75.93;101223.47;5024649;28;19917;-60
2022/06/19 05:13:33;;;;;;;;;;;;;;;14.86;75.67;101195.50;5023353;28;19917;-60
2022/06/19 05:16:09;;;;;;;;;;;;;;;14.95;75.96;101211.91;5025216;28;19944;-61
2022/06/19 05:18:34;;;;;;;;;;;;;;;15.10;75.58;101274.03;5040035;28;19917;-61
2022/06/19 05:21:04;;;;;;;;;;;;;;;15.04;75.81;101285.78;5024902;28;19917;-61
2022/06/19 05:23:29;;;;;;;;;;;;;;;15.11;75.20;101268.66;5025262;28;20000;-59
2022/06/19 05:26:16;;;;;;;;;;;;;;;14.98;75.87;101212.66;5024756;28;20150;-60
2022/06/19 05:28:41;;;;;;;;;;;;;;;14.97;76.93;101213.59;5023899;28;19905;-60
2022/06/19 05:31:06;;;;;;;;;;;;;;;15.05;76.36;101178.69;5024460;28;19924;-60
2022/06/19 05:33:32;;;;;;;;;;;;;;;14.89;77.79;101150.25;5024616;28;19905;-60
2022/06/19 05:35:57;;;;;;;;;;;;;;;14.99;76.24;101144.53;5028960;28;19937;-60
2022/06/19 05:38:23;;;;;;;;;;;;;;;14.78;76.82;101134.00;5024367;28;20394;-59
2022/06/19 05:40:49;;;;;;;;;;;;;;;14.97;75.92;101195.00;5024372;28;19917;-60
2022/06/19 05:43:14;;;;;;;;;;;;;;;15.18;75.42;101225.91;5021758;28;19921;-60
2022/06/19 05:45:39;;;;;;;;;;;;;;;15.28;74.60;101259.03;5024272;28;19971;-59
2022/06/19 05:48:05;;;;;;;;;;;;;;;15.58;73.13;101263.81;5022752;28;19983;-61
2022/06/19 05:50:30;;;;;;;;;;;;;;;15.63;72.95;101264.44;5043435;28;19923;-59
2022/06/19 05:52:55;;;;;;;;;;;;;;;15.52;73.27;101262.34;5043560;28;19923;-60
2022/06/19 05:55:21;;;;;;;;;;;;;;;15.56;72.64;101294.06;5016424;28;19926;-59
2022/06/19 05:57:46;;;;;;;;;;;;;;;15.53;72.75;101316.28;5014922;28;19922;-59
2022/06/19 06:00:12;;;;;;;;;;;;;;;15.53;72.83;101324.25;5009405;28;20474;-59
2022/06/19 06:02:37;;;;;;;;;;;;;;;15.54;72.97;101353.41;5004288;28;20428;-61
2022/06/19 06:05:03;;;;;;;;;;;;;;;15.61;71.83;101380.56;5019187;28;20372;-59
2022/06/19 06:07:28;;;;;;;;;;;;;;;15.75;71.08;101394.97;5035660;28;19978;-64
2022/06/19 06:09:53;;;;;;;;;;;;;;;15.61;70.94;101404.47;5024545;28;19992;-60
2022/06/19 06:12:18;;;;;;;;;;;;;;;15.56;71.31;101409.09;5024283;28;20327;-60
2022/06/19 06:14:44;;;;;;;;;;;;;;;15.78;70.75;101413.44;5022699;28;20015;-62
2022/06/19 06:17:09;;;;;;;;;;;;;;;15.86;71.61;101400.63;5024136;28;19987;-60
2022/06/19 06:19:34;;;;;;;;;;;;;;;15.76;72.10;101404.66;5024500;28;20363;-61
2022/06/19 06:22:00;;;;;;;;;;;;;;;15.68;72.58;101422.78;5019729;28;19956;-61
2022/06/19 06:24:25;;;;;;;;;;;;;;;15.62;71.66;101435.41;5024238;28;19935;-61
2022/06/19 06:26:51;;;;;;;;;;;;;;;15.86;70.56;101437.84;5024180;28;19967;-61
2022/06/19 06:29:17;;;;;;;;;;;;;;;15.81;70.41;101431.91;5022714;28;20405;-60
2022/06/19 06:31:42;;;;;;;;;;;;;;;15.89;70.24;101431.50;5024384;28;19925;-60
2022/06/19 06:34:08;;;;;;;;;;;;;;;15.90;70.29;101441.22;5023868;28;19947;-64
2022/06/19 06:36:33;;;;;;;;;;;;;;;15.81;70.46;101431.91;5023674;28;20378;-60
2022/06/19 06:38:58;;;;;;;;;;;;;;;15.85;70.07;101440.56;5024693;28;20201;-61
2022/06/19 06:41:23;;;;;;;;;;;;;;;15.89;70.32;101437.69;5023869;28;19917;-61
2022/06/19 06:43:49;;;;;;;;;;;;;;;15.82;70.33;101433.63;5023217;28;19921;-61
2022/06/19 06:46:15;;;;;;;;;;;;;;;15.71;70.36;101434.09;5025405;28;19948;-61
2022/06/19 06:48:40;;;;;;;;;;;;;;;15.70;70.42;101436.81;5027574;28;19924;-62
2022/06/19 06:51:06;;;;;;;;;;;;;;;15.83;70.45;101432.66;5027077;28;19917;-61
2022/06/19 06:53:31;;;;;;;;;;;;;;;15.78;70.08;101435.53;5027445;28;19920;-61
2022/06/19 06:55:57;;;;;;;;;;;;;;;15.74;69.77;101439.28;5027806;28;19921;-60
2022/06/19 06:58:22;;;;;;;;;;;;;;;15.50;70.81;101444.78;5026219;28;20007;-60
2022/06/19 07:00:47;;;;;;;;;;;;;;;15.54;70.49;101443.69;5027188;28;19971;-62
2022/06/19 07:03:12;;;;;;;;;;;;;;;15.68;70.26;101450.19;5027212;28;19917;-60
2022/06/19 07:05:37;;;;;;;;;;;;;;;15.78;69.94;101458.59;5027469;28;19917;-60
2022/06/19 07:08:03;;;;;;;;;;;;;;;15.81;70.30;101466.44;5031502;28;19925;-61
2022/06/19 07:10:28;;;;;;;;;;;;;;;15.81;70.13;101461.13;5028031;28;19925;-61
2022/06/19 07:12:54;;;;;;;;;;;;;;;15.71;70.46;101471.28;5025948;28;20004;-60
2022/06/19 07:15:19;;;;;;;;;;;;;;;15.57;71.17;101474.59;5026329;28;19921;-60
2022/06/19 07:17:44;;;;;;;;;;;;;;;15.49;70.88;101474.06;5019672;28;20355;-61
2022/06/19 07:20:09;;;;;;;;;;;;;;;15.63;70.97;101482.25;5016946;28;20352;-60
2022/06/19 07:22:35;;;;;;;;;;;;;;;15.72;71.01;101464.19;5018540;28;19921;-61
2022/06/19 07:25:01;;;;;;;;;;;;;;;15.58;72.12;101486.06;5027024;28;20024;-61
2022/06/19 07:27:26;;;;;;;;;;;;;;;15.70;71.47;101480.22;5020967;28;19960;-61
2022/06/19 07:29:51;;;;;;;;;;;;;;;15.85;71.24;101483.97;5037056;28;19971;-60
2022/06/19 07:32:16;;;;;;;;;;;;;;;15.86;71.48;101485.69;5047107;28;19917;-60
2022/06/19 07:34:42;;;;;;;;;;;;;;;15.76;72.87;101497.66;5042408;28;20024;-61
2022/06/19 07:37:09;;;;;;;;;;;;;;;15.89;72.35;101506.78;5024150;28;20429;-61
2022/06/19 07:39:34;;;;;;;;;;;;;;;15.71;73.49;101497.03;5025694;28;19917;-60
2022/06/19 07:41:59;;;;;;;;;;;;;;;15.93;72.85;101483.63;5027517;28;19917;-60
2022/06/19 07:44:25;;;;;;;;;;;;;;;15.99;71.79;101482.50;5025690;28;19909;-61
2022/06/19 07:50:19;;;;;;;;;;;;;;;16.09;71.75;101437.72;5047374;28;20325;-61
2022/06/19 07:52:21;;;;;;;;;;;;;;;16.01;71.61;101414.16;5033445;28;20629;-61
2022/06/19 07:54:46;;;;;;;;;;;;;;;15.96;71.28;101381.59;5027153;28;19945;-61
2022/06/19 07:57:11;;;;;;;;;;;;;;;16.26;71.12;101373.94;5026447;28;19975;-62
2022/06/19 07:59:37;;;;;;;;;;;;;;;16.29;71.41;101372.97;5044929;28;20374;-61
2022/06/19 08:02:02;;;;;;;;;;;;;;;16.50;70.32;101365.69;5026249;28;20664;-62
2022/06/19 08:04:27;;;;;;;;;;;;;;;16.67;70.75;101354.19;5016805;28;19940;-61
2022/06/19 08:06:52;;;;;;;;;;;;;;;16.61;70.10;101351.84;5014547;28;20395;-62
2022/06/19 08:09:18;;;;;;;;;;;;;;;16.86;68.68;101347.91;5019785;28;20419;-62
2022/06/19 08:11:43;;;;;;;;;;;;;;;16.86;68.70;101345.22;5015920;28;20360;-64
2022/06/19 08:14:08;;;;;;;;;;;;;;;16.67;69.63;101364.84;5014437;28;19928;-61
2022/06/19 08:16:34;;;;;;;;;;;;;;;17.09;68.59;101379.59;5026683;28;19923;-60
2022/06/19 08:18:59;;;;;;;;;;;;;;;17.46;67.85;101392.75;5026363;28;19924;-60
2022/06/19 08:21:24;;;;;;;;;;;;;;;17.62;66.81;101393.63;5025983;28;19925;-61
2022/06/19 08:23:50;;;;;;;;;;;;;;;17.60;66.62;101384.84;5026149;28;19917;-62
2022/06/19 08:26:15;;;;;;;;;;;;;;;17.58;67.12;101386.72;5025764;28;19921;-60
2022/06/19 08:31:05;;;;;;;;;;;;;;;17.87;65.81;101412.72;5025987;28;19960;-60
2022/06/19 08:33:31;;;;;;;;;;;;;;;17.71;65.91;101421.59;5046367;28;19960;-65
2022/06/19 08:35:57;;;;;;;;;;;;;;;17.77;65.45;101423.03;5045352;28;19928;-66
2022/06/19 08:38:24;;;;;;;;;;;;;;;17.93;64.52;101412.38;5043253;28;19921;-61
2022/06/19 08:40:52;;;;;;;;;;;;;;;18.07;64.51;101406.28;5044893;28;19928;-57
2022/06/19 08:43:20;;;;;;;;;;;;;;;17.76;65.89;101389.34;5040176;28;19980;-60
2022/06/19 08:46:04;;;;;;;;;;;;;;;17.96;64.24;101380.22;5026240;28;19940;-61
2022/06/19 08:48:48;;;;;;;;;;;;;;;17.73;65.50;101382.38;5025961;28;19921;-61
2022/06/19 08:51:13;;;;;;;;;;;;;;;17.67;66.74;101382.72;5027092;28;19928;-63
2022/06/19 08:54:01;;;;;;;;;;;;;;;17.56;66.78;101380.66;5025246;28;19917;-65
2022/06/19 08:56:38;;;;;;;;;;;;;;;17.89;65.32;101382.38;5023860;28;20306;-63
2022/06/19 08:59:10;;;;;;;;;;;;;;;18.10;64.93;101376.81;5022868;28;19921;-65
2022/06/19 09:01:38;;;;;;;;;;;;;;;17.82;65.62;101373.00;5023608;28;19921;-64
2022/06/19 09:07:07;;;;;;;;;;;;;;;17.98;65.32;101381.00;5025056;28;19928;-61
2022/06/19 09:09:51;;;;;;;;;;;;;;;17.91;65.17;101385.81;5028987;28;20049;-63
2022/06/19 09:12:30;;;;;;;;;;;;;;;18.03;64.49;101388.75;5042421;28;19938;-61
2022/06/19 09:15:14;;;;;;;;;;;;;;;18.10;64.69;101367.91;5041049;28;19928;-62
2022/06/19 09:17:48;;;;;;;;;;;;;;;18.27;64.53;101353.63;5045569;28;20016;-63
2022/06/19 09:20:31;;;;;;;;;;;;;;;18.58;63.96;101332.25;5042734;28;19970;-63
2022/06/19 09:22:59;;;;;;;;;;;;;;;18.72;63.65;101326.94;5045489;28;20555;-63
2022/06/19 09:25:44;;;;;;;;;;;;;;;18.40;65.11;101314.63;5029627;28;19960;-63
2022/06/19 09:28:09;;;;;;;;;;;;;;;18.78;63.85;101315.06;5040404;28;19921;-64
2022/06/19 09:30:37;;;;;;;;;;;;;;;18.78;62.87;101294.53;5044019;28;19917;-63
2022/06/19 09:33:09;;;;;;;;;;;;;;;18.71;62.93;101295.88;5028104;28;19921;-62
2022/06/19 09:35:35;;;;;;;;;;;;;;;18.53;63.19;101316.53;5025148;28;19922;-63
2022/06/19 09:38:01;;;;;;;;;;;;;;;19.00;60.83;101327.06;5018593;28;20387;-63
2022/06/19 09:40:28;;;;;;;;;;;;;;;18.50;62.65;101335.38;5019122;28;19928;-62
2022/06/19 09:42:57;;;;;;;;;;;;;;;18.76;61.62;101335.63;5020450;28;19925;-63
2022/06/19 09:45:29;;;;;;;;;;;;;;;18.67;63.77;101321.03;5012350;28;19922;-64
2022/06/19 09:48:01;;;;;;;;;;;;;;;18.92;62.90;101320.41;5007928;28;19922;-64
2022/06/19 09:50:30;;;;;;;;;;;;;;;18.82;62.39;101325.44;5023119;28;20421;-64
2022/06/19 09:53:04;;;;;;;;;;;;;;;18.24;63.20;101327.16;5024654;28;20001;-65
2022/06/19 09:55:36;;;;;;;;;;;;;;;18.13;63.33;101327.75;5023300;28;19929;-64
2022/06/19 09:58:15;;;;;;;;;;;;;;;18.28;61.34;101339.34;5014298;28;19921;-64
2022/06/19 10:00:41;;;;;;;;;;;;;;;17.83;63.58;101341.88;5014931;28;19921;-64
2022/06/19 10:03:20;;;;;;;;;;;;;;;17.57;65.39;101346.88;5014742;28;19928;-64
2022/06/19 10:05:53;;;;;;;;;;;;;;;17.63;63.95;101355.38;5015189;28;19960;-63
2022/06/19 10:08:26;;;;;;;;;;;;;;;17.85;63.48;101369.31;5021459;28;20048;-62
2022/06/19 10:10:51;;;;;;;;;;;;;;;18.14;62.00;101381.00;5016909;28;21016;-61
2022/06/19 10:13:24;;;;;;;;;;;;;;;18.01;61.76;101383.50;5016833;28;19927;-63
2022/06/19 10:15:50;;;;;;;;;;;;;;;18.35;61.03;101388.72;5015605;28;20075;-62
2022/06/19 10:18:23;;;;;;;;;;;;;;;18.35;62.64;101385.16;5023022;28;20438;-63
2022/06/19 10:20:57;;;;;;;;;;;;;;;18.44;62.95;101382.84;5025329;28;20055;-63
2022/06/19 10:23:43;;;;;;;;;;;;;;;18.62;61.79;101388.03;5027753;28;19917;-63
2022/06/19 10:26:08;;;;;;;;;;;;;;;19.00;61.77;101369.78;5019827;28;19966;-61
2022/06/19 10:28:52;;;;;;;;;;;;;;;19.03;61.10;101380.28;5018004;28;20390;-62
2022/06/19 10:31:33;;;;;;;;;;;;;;;19.29;60.67;101385.84;5021557;28;19925;-60
2022/06/19 10:34:02;;;;;;;;;;;;;;;19.38;60.99;101393.28;5015046;28;19948;-60
2022/06/19 10:36:30;;;;;;;;;;;;;;;19.63;60.07;101390.88;5020427;28;20333;-59
2022/06/19 10:39:02;;;;;;;;;;;;;;;19.41;59.96;101417.16;5048405;28;19917;-58
2022/06/19 10:44:25;;;;;;;;;;;;;;;19.64;57.74;101390.78;5027216;28;20438;-57
2022/06/19 10:46:57;;;;;;;;;;;;;;;19.55;58.90;101367.31;5025770;28;20730;-62
2022/06/19 10:49:28;;;;;;;;;;;;;;;19.07;61.57;101387.16;5027159;28;19925;-63
2022/06/19 10:52:05;;;;;;;;;;;;;;;19.66;59.64;101377.34;5020959;28;20012;-63
2022/06/19 10:54:39;;;;;;;;;;;;;;;19.94;60.04;101355.00;5020021;28;19971;-64
2022/06/19 10:57:10;;;;;;;;;;;;;;;20.29;58.63;101326.88;5022010;28;19921;-64
2022/06/19 10:59:36;;;;;;;;;;;;;;;20.33;59.25;101304.31;5028747;28;19917;-64
2022/06/19 11:04:53;;;;;;;;;;;;;;;20.66;59.84;101320.84;5021921;28;20596;-65
2022/06/19 11:07:18;;;;;;;;;;;;;;;21.38;55.52;101341.78;5025524;28;20060;-63
2022/06/19 11:09:46;;;;;;;;;;;;;;;21.20;56.29;101326.91;5022276;28;20561;-64
2022/06/19 11:12:22;;;;;;;;;;;;;;;20.86;56.56;101318.56;5019113;28;20355;-64
2022/06/19 11:14:49;;;;;;;;;;;;;;;20.47;55.63;101315.03;5021993;28;19925;-62
2022/06/19 11:17:15;;;;;;;;;;;;;;;20.18;56.63;101322.28;5027550;28;19971;-61
2022/06/19 11:19:42;;;;;;;;;;;;;;;20.52;54.76;101336.97;5026726;28;20384;-61
2022/06/19 11:22:26;;;;;;;;;;;;;;;20.50;56.34;101347.78;5027622;28;19961;-62
2022/06/19 11:24:52;;;;;;;;;;;;;;;20.21;56.75;101369.34;5026326;28;19968;-62
2022/06/19 11:27:19;;;;;;;;;;;;;;;20.38;55.60;101373.56;5027074;28;19968;-62
2022/06/19 11:29:45;;;;;;;;;;;;;;;20.43;55.06;101378.59;5025035;28;20387;-62
2022/06/19 11:32:13;;;;;;;;;;;;;;;20.52;55.95;101395.84;5026546;28;19956;-63
2022/06/19 11:34:47;;;;;;;;;;;;;;;20.30;55.42;101405.34;5030179;28;19921;-61
2022/06/19 11:37:24;;;;;;;;;;;;;;;20.37;55.28;101403.09;5047297;28;20375;-61
2022/06/19 11:39:58;;;;;;;;;;;;;;;20.72;54.06;101429.31;5046244;28;19921;-66
2022/06/19 11:42:53;;;;;;;;;;;;;;;20.57;55.60;101436.56;5046401;28;20375;-62
2022/06/19 11:45:18;;;;;;;;;;;;;;;21.21;53.55;101456.41;5027791;28;19921;-60
2022/06/19 11:47:43;;;;;;;;;;;;;;;20.86;53.77;101476.56;5026231;28;20291;-60
2022/06/19 11:50:10;;;;;;;;;;;;;;;20.99;52.61;101478.47;5025284;28;19991;-61
2022/06/19 11:52:35;;;;;;;;;;;;;;;21.27;52.49;101487.25;5027236;28;19962;-59
2022/06/19 11:55:00;;;;;;;;;;;;;;;21.59;51.44;101497.56;5041034;28;19933;-60
2022/06/19 11:57:27;;;;;;;;;;;;;;;21.78;50.86;101490.91;5025918;28;19928;-61
2022/06/19 11:59:56;;;;;;;;;;;;;;;21.62;50.65;101494.69;5024351;28;19953;-62
2022/06/19 12:02:21;;;;;;;;;;;;;;;21.62;51.13;101491.13;5045360;28;20375;-61
2022/06/19 12:04:53;;;;;;;;;;;;;;;21.09;52.04;101500.97;5045394;28;19920;-61
2022/06/19 12:07:19;;;;;;;;;;;;;;;20.92;53.70;101511.00;5041916;28;20387;-61
2022/06/19 12:09:45;;;;;;;;;;;;;;;21.11;52.93;101520.50;5044936;28;19971;-60
2022/06/19 12:12:11;;;;;;;;;;;;;;;21.65;52.12;101520.41;5041905;28;20252;-61
2022/06/19 12:14:36;;;;;;;;;;;;;;;21.70;51.03;101515.56;5046105;28;19928;-61
2022/06/19 12:17:16;;;;;;;;;;;;;;;22.24;49.24;101516.25;5043153;28;20358;-63
2022/06/19 12:19:53;;;;;;;;;;;;;;;22.90;46.35;101525.75;5025390;28;19967;-62
2022/06/19 12:22:20;;;;;;;;;;;;;;;22.89;45.80;101520.50;5024639;28;19944;-63
2022/06/19 12:24:47;;;;;;;;;;;;;;;22.91;46.59;101516.69;5042643;28;20295;-63
2022/06/19 12:27:14;;;;;;;;;;;;;;;22.59;47.69;101528.06;5043297;28;19927;-61
2022/06/19 12:29:41;;;;;;;;;;;;;;;22.84;47.72;101521.69;5044060;28;20299;-62
2022/06/19 12:32:08;;;;;;;;;;;;;;;22.94;46.96;101527.22;5045650;28;20016;-60
2022/06/19 12:34:41;;;;;;;;;;;;;;;22.99;46.18;101528.72;5029784;28;20272;-60
2022/06/19 12:37:17;;;;;;;;;;;;;;;23.25;45.94;101537.47;5025685;28;19917;-62
2022/06/19 12:39:43;;;;;;;;;;;;;;;23.10;45.61;101532.31;5025381;28;20566;-61
2022/06/19 12:42:11;;;;;;;;;;;;;;;22.89;46.09;101537.47;5025292;28;19963;-61
2022/06/19 12:44:55;;;;;;;;;;;;;;;23.14;46.06;101538.28;5037116;28;19921;-61
2022/06/19 12:47:20;;;;;;;;;;;;;;;22.34;47.27;101537.91;5045676;28;19916;-61
2022/06/19 12:50:04;;;;;;;;;;;;;;;22.61;46.80;101520.75;5035012;28;19928;-61
2022/06/19 12:52:32;;;;;;;;;;;;;;;22.65;46.96;101514.19;5026079;28;19952;-61